createdAt,value
2019-04-07T00:00:24.301Z,9.1
2019-04-07T00:01:32.308Z,9
2019-04-07T00:02:40.730Z,9.2
2019-04-07T00:03:48.324Z,9.2
2019-04-07T00:04:57.320Z,9.3
2019-04-07T00:06:21.406Z,9.4
2019-04-07T00:07:30.399Z,9.4
2019-04-07T00:08:38.670Z,9.4
2019-04-07T00:09:45.878Z,9.3
2019-04-07T00:10:53.327Z,9.3
2019-04-07T00:12:01.054Z,9.3
2019-04-07T00:13:08.705Z,9.2
2019-04-07T00:14:17.221Z,9.1
2019-04-07T00:15:25.797Z,9
2019-04-07T00:16:33.231Z,9
2019-04-07T00:17:40.433Z,9
2019-04-07T00:18:47.540Z,9
2019-04-07T00:19:55.695Z,9.2
2019-04-07T00:21:03.913Z,9.3
2019-04-07T00:22:12.725Z,9.4
2019-04-07T00:23:21.262Z,9.5
2019-04-07T00:24:29.563Z,9.6
2019-04-07T00:25:36.569Z,9.5
2019-04-07T00:26:45.255Z,9.6
2019-04-07T00:27:52.578Z,9.6
2019-04-07T00:29:01.545Z,9.4
2019-04-07T00:30:09.457Z,9.3
2019-04-07T00:31:16.897Z,9.1
2019-04-07T00:32:25.429Z,9.1
2019-04-07T00:33:32.715Z,9.1
2019-04-07T00:34:40.274Z,9.1
2019-04-07T00:35:48.359Z,9.1
2019-04-07T00:36:56.601Z,9.2
2019-04-07T00:38:04.840Z,9.1
2019-04-07T00:39:12.125Z,9.2
2019-04-07T00:40:19.643Z,9.2
2019-04-07T00:41:28.621Z,9.1
2019-04-07T00:42:36.353Z,9
2019-04-07T00:43:43.843Z,8.9
2019-04-07T00:44:51.999Z,8.9
2019-04-07T00:45:59.663Z,8.8
2019-04-07T00:47:08.615Z,8.8
2019-04-07T00:48:17.810Z,8.9
2019-04-07T00:49:25.756Z,8.9
2019-04-07T00:50:34.715Z,8.9
2019-04-07T00:51:43.209Z,9.1
2019-04-07T00:52:51.282Z,9.1
2019-04-07T00:54:00.679Z,9.2
2019-04-07T00:55:09.940Z,9.3
2019-04-07T00:56:16.933Z,9.3
2019-04-07T00:57:25.144Z,9.2
2019-04-07T00:58:34.358Z,9.2
2019-04-07T00:59:41.588Z,9.1
2019-04-07T01:00:50.399Z,9.3
2019-04-07T01:01:58.544Z,9.3
2019-04-07T01:03:05.751Z,9.3
2019-04-07T01:04:13.786Z,9.4
2019-04-07T01:05:38.457Z,9.4
2019-04-07T01:06:49.650Z,9.3
2019-04-07T01:07:57.490Z,9.2
2019-04-07T01:09:05.478Z,9.1
2019-04-07T01:10:13.283Z,9.1
2019-04-07T01:11:22.071Z,9.1
2019-04-07T01:12:30.888Z,9.1
2019-04-07T01:13:38.533Z,9.1
2019-04-07T01:14:46.696Z,9.1
2019-04-07T01:15:55.996Z,9.1
2019-04-07T01:17:04.380Z,9.1
2019-04-07T01:18:11.307Z,9.1
2019-04-07T01:19:18.901Z,9.2
2019-04-07T01:20:27.387Z,9.2
2019-04-07T01:21:34.823Z,9.2
2019-04-07T01:22:42.488Z,9.3
2019-04-07T01:23:50.196Z,9.4
2019-04-07T01:24:58.494Z,9.3
2019-04-07T01:26:07.430Z,9.3
2019-04-07T01:27:16.227Z,9.3
2019-04-07T01:28:23.625Z,9.3
2019-04-07T01:29:30.893Z,9.2
2019-04-07T01:30:39.479Z,9.3
2019-04-07T01:31:48.244Z,9.3
2019-04-07T01:32:57.483Z,9.3
2019-04-07T01:34:04.875Z,9.3
2019-04-07T01:35:13.276Z,9.3
2019-04-07T01:36:22.628Z,9.3
2019-04-07T01:37:31.611Z,9.4
2019-04-07T01:38:38.846Z,9.3
2019-04-07T01:39:47.036Z,9.2
2019-04-07T01:40:54.608Z,9.2
2019-04-07T01:42:02.614Z,9.2
2019-04-07T01:43:11.275Z,9.1
2019-04-07T01:44:20.126Z,9
2019-04-07T01:45:27.966Z,8.9
2019-04-07T01:46:37.062Z,8.8
2019-04-07T01:47:44.291Z,8.9
2019-04-07T01:48:52.067Z,8.9
2019-04-07T01:50:00.996Z,9
2019-04-07T01:51:10.283Z,8.9
2019-04-07T01:52:18.303Z,8.8
2019-04-07T01:53:27.993Z,8.7
2019-04-07T01:54:37.211Z,8.7
2019-04-07T01:55:46.373Z,8.6
2019-04-07T01:56:54.277Z,8.5
2019-04-07T01:58:01.970Z,8.4
2019-04-07T01:59:12.211Z,8.3
2019-04-07T02:00:19.405Z,8.2
2019-04-07T02:01:27.386Z,8.1
2019-04-07T02:02:36.643Z,7.9
2019-04-07T02:03:43.911Z,7.8
2019-04-07T02:04:52.117Z,7.7
2019-04-07T02:06:05.683Z,7.8
2019-04-07T02:07:13.380Z,7.7
2019-04-07T02:08:22.054Z,7.7
2019-04-07T02:09:30.478Z,7.6
2019-04-07T02:10:38.468Z,7.6
2019-04-07T02:11:47.903Z,7.6
2019-04-07T02:12:56.630Z,7.5
2019-04-07T02:14:05.892Z,7.5
2019-04-07T02:15:14.382Z,7.4
2019-04-07T02:16:21.576Z,7.4
2019-04-07T02:17:30.078Z,7.4
2019-04-07T22:00:06.642Z,10.4
2019-04-07T22:01:15.066Z,10.4
2019-04-07T22:02:23.641Z,10.3
2019-04-07T22:03:31.556Z,10.3
2019-04-07T22:04:39.549Z,10.2
2019-04-07T22:05:47.789Z,10.2
2019-04-07T22:06:59.582Z,10.1
2019-04-07T22:08:17.350Z,10.1
2019-04-07T22:09:27.469Z,10
2019-04-07T22:10:34.674Z,9.9
2019-04-07T22:11:45.902Z,9.9
2019-04-07T22:12:53.533Z,9.9
2019-04-07T22:14:08.033Z,9.9
2019-04-07T22:15:15.913Z,9.8
2019-04-07T22:16:30.539Z,9.7
2019-04-07T22:17:41.189Z,9.7
2019-04-07T22:18:49.099Z,9.7
2019-04-07T22:19:56.930Z,9.6
2019-04-07T22:21:04.562Z,9.6
2019-04-07T22:22:11.888Z,9.6
2019-04-07T22:23:19.309Z,9.6
2019-04-07T22:24:35.811Z,9.5
2019-04-07T22:25:46.636Z,9.5
2019-04-07T22:26:55.573Z,9.5
2019-04-07T22:28:03.933Z,9.5
2019-04-07T22:29:12.421Z,9.5
2019-04-07T22:30:19.841Z,9.5
2019-04-07T22:31:27.404Z,9.5
2019-04-07T22:32:36.443Z,9.5
2019-04-07T22:33:43.384Z,9.5
2019-04-07T22:34:51.212Z,9.5
2019-04-07T22:36:00.182Z,9.5
2019-04-07T22:37:08.152Z,9.5
2019-04-07T22:38:23.394Z,9.5
2019-04-07T22:39:33.318Z,9.5
2019-04-07T22:40:41.606Z,9.5
2019-04-07T22:41:50.906Z,9.5
2019-04-07T22:43:00.068Z,9.5
2019-04-07T22:44:07.885Z,9.6
2019-04-07T22:45:16.068Z,9.6
2019-04-07T22:46:27.450Z,9.6
2019-04-07T22:47:36.299Z,9.6
2019-04-07T22:48:44.343Z,9.7
2019-04-07T22:49:53.177Z,9.7
2019-04-07T22:51:04.078Z,9.7
2019-04-07T22:52:21.026Z,9.7
2019-04-07T22:53:31.765Z,9.8
2019-04-07T22:54:42.166Z,9.7
2019-04-07T22:55:49.393Z,9.8
2019-04-07T22:56:57.335Z,9.7
2019-04-07T22:58:04.266Z,9.7
2019-04-07T22:59:13.291Z,9.7
2019-04-07T23:00:21.178Z,9.7
2019-04-07T23:01:29.203Z,9.7
2019-04-07T23:02:36.644Z,9.7
2019-04-07T23:03:45.452Z,9.7
2019-04-07T23:04:52.972Z,9.8
2019-04-07T23:06:01.546Z,9.7
2019-04-07T23:07:09.395Z,9.7
2019-04-07T23:08:17.209Z,9.8
2019-04-07T23:09:25.525Z,9.8
2019-04-07T23:10:34.199Z,9.8
2019-04-07T23:11:42.061Z,9.7
2019-04-07T23:12:50.966Z,9.7
2019-04-07T23:13:58.946Z,9.7
2019-04-07T23:15:06.195Z,9.7
2019-04-07T23:16:17.812Z,9.7
2019-04-07T23:17:27.805Z,9.7
2019-04-07T23:18:36.112Z,9.7
2019-04-07T23:19:43.199Z,9.7
2019-04-07T23:20:51.406Z,9.8
2019-04-07T23:21:58.428Z,9.8
2019-04-07T23:23:05.633Z,9.8
2019-04-07T23:24:13.553Z,9.8
2019-04-07T23:25:23.507Z,9.8
2019-04-07T23:26:30.709Z,9.8
2019-04-07T23:27:38.787Z,9.8
2019-04-07T23:28:47.380Z,9.8
2019-04-07T23:29:55.444Z,9.8
2019-04-07T23:31:03.805Z,9.8
2019-04-07T23:32:12.202Z,9.8
2019-04-07T23:33:20.169Z,9.9
2019-04-07T23:34:27.999Z,9.9
2019-04-07T23:35:35.589Z,9.9
2019-04-07T23:36:44.112Z,9.9
2019-04-07T23:37:52.142Z,9.9
2019-04-07T23:38:59.488Z,9.9
2019-04-07T23:40:08.594Z,10
2019-04-07T23:41:16.408Z,10
2019-04-07T23:42:24.732Z,10.1
2019-04-07T23:43:33.418Z,10.1
2019-04-07T23:44:40.673Z,10.1
2019-04-07T23:45:48.052Z,10.2
2019-04-07T23:46:55.947Z,10.3
2019-04-07T23:48:04.594Z,10.3
2019-04-07T23:49:13.640Z,10.4
2019-04-07T23:50:21.207Z,10.4
2019-04-07T23:51:29.350Z,10.4
2019-04-07T23:52:37.562Z,10.5
2019-04-07T23:53:45.780Z,10.5
2019-04-07T23:54:53.248Z,10.6
2019-04-07T23:56:02.194Z,10.6
2019-04-07T23:57:10.048Z,10.6
2019-04-07T23:58:18.761Z,10.6
2019-04-07T23:59:26.961Z,10.6
